sensor_id;sensor_type;location;lat;lon;timestamp;P1;durP1;ratioP1;P2;durP2;ratioP2
39486;SDS011;25173;50.430;18.926;2022-10-12T00:01:00;82.60;;;50.72;;
39486;SDS011;25173;50.430;18.926;2022-10-12T00:04:01;90.90;;;51.13;;
39486;SDS011;25173;50.430;18.926;2022-10-12T00:07:02;93.78;;;54.78;;
39486;SDS011;25173;50.430;18.926;2022-10-12T00:10:02;99.82;;;56.42;;
39486;SDS011;25173;50.430;18.926;2022-10-12T00:13:03;96.95;;;57.60;;
39486;SDS011;25173;50.430;18.926;2022-10-12T00:16:05;115.03;;;66.38;;
39486;SDS011;25173;50.430;18.926;2022-10-12T00:19:06;99.60;;;59.92;;
39486;SDS011;25173;50.430;18.926;2022-10-12T00:22:07;89.05;;;55.03;;
39486;SDS011;25173;50.430;18.926;2022-10-12T00:25:08;95.72;;;53.83;;
39486;SDS011;25173;50.430;18.926;2022-10-12T00:28:09;78.70;;;43.95;;
39486;SDS011;25173;50.430;18.926;2022-10-12T00:31:11;86.55;;;51.42;;
39486;SDS011;25173;50.430;18.926;2022-10-12T00:34:14;91.97;;;51.05;;
39486;SDS011;25173;50.430;18.926;2022-10-12T00:37:14;77.88;;;45.17;;
39486;SDS011;25173;50.430;18.926;2022-10-12T00:40:15;69.38;;;41.85;;
39486;SDS011;25173;50.430;18.926;2022-10-12T00:43:29;68.10;;;39.50;;
39486;SDS011;25173;50.430;18.926;2022-10-12T00:46:38;58.97;;;35.90;;
39486;SDS011;25173;50.430;18.926;2022-10-12T00:49:46;73.30;;;44.22;;
39486;SDS011;25173;50.430;18.926;2022-10-12T00:55:53;109.97;;;72.57;;
39486;SDS011;25173;50.430;18.926;2022-10-12T00:58:58;116.43;;;69.85;;
39486;SDS011;25173;50.430;18.926;2022-10-12T01:02:02;120.25;;;69.40;;
39486;SDS011;25173;50.430;18.926;2022-10-12T01:05:02;133.23;;;73.57;;
39486;SDS011;25173;50.430;18.926;2022-10-12T01:08:04;115.80;;;71.60;;
39486;SDS011;25173;50.430;18.926;2022-10-12T01:11:05;91.40;;;54.72;;
39486;SDS011;25173;50.430;18.926;2022-10-12T01:14:05;83.55;;;49.15;;
39486;SDS011;25173;50.430;18.926;2022-10-12T01:29:54;80.05;;;47.47;;
39486;SDS011;25173;50.430;18.926;2022-10-12T01:36:17;86.97;;;52.22;;
39486;SDS011;25173;50.430;18.926;2022-10-12T01:39:24;86.72;;;53.05;;
39486;SDS011;25173;50.430;18.926;2022-10-12T01:42:36;109.97;;;64.28;;
39486;SDS011;25173;50.430;18.926;2022-10-12T01:45:39;108.50;;;63.78;;
39486;SDS011;25173;50.430;18.926;2022-10-12T01:48:40;110.53;;;64.55;;
39486;SDS011;25173;50.430;18.926;2022-10-12T01:52:45;92.43;;;56.55;;
39486;SDS011;25173;50.430;18.926;2022-10-12T02:02:18;102.63;;;60.78;;
39486;SDS011;25173;50.430;18.926;2022-10-12T02:05:36;106.22;;;61.97;;
39486;SDS011;25173;50.430;18.926;2022-10-12T02:08:54;96.57;;;60.05;;
39486;SDS011;25173;50.430;18.926;2022-10-12T02:12:08;116.30;;;64.43;;
39486;SDS011;25173;50.430;18.926;2022-10-12T02:15:13;110.93;;;64.50;;
39486;SDS011;25173;50.430;18.926;2022-10-12T02:18:16;108.03;;;64.30;;
39486;SDS011;25173;50.430;18.926;2022-10-12T02:21:19;100.53;;;62.00;;
39486;SDS011;25173;50.430;18.926;2022-10-12T02:24:23;113.50;;;67.78;;
39486;SDS011;25173;50.430;18.926;2022-10-12T02:27:24;120.45;;;67.40;;
39486;SDS011;25173;50.430;18.926;2022-10-12T02:30:26;106.97;;;60.55;;
39486;SDS011;25173;50.430;18.926;2022-10-12T02:34:03;106.10;;;62.45;;
39486;SDS011;25173;50.430;18.926;2022-10-12T02:40:36;111.75;;;67.72;;
39486;SDS011;25173;50.430;18.926;2022-10-12T02:46:44;112.38;;;69.18;;
39486;SDS011;25173;50.430;18.926;2022-10-12T02:49:47;111.70;;;66.85;;
39486;SDS011;25173;50.430;18.926;2022-10-12T02:52:49;104.88;;;67.00;;
39486;SDS011;25173;50.430;18.926;2022-10-12T02:55:53;107.63;;;68.85;;
39486;SDS011;25173;50.430;18.926;2022-10-12T02:58:59;128.73;;;75.30;;
39486;SDS011;25173;50.430;18.926;2022-10-12T03:01:59;130.13;;;76.07;;
39486;SDS011;25173;50.430;18.926;2022-10-12T03:05:00;117.60;;;71.53;;
39486;SDS011;25173;50.430;18.926;2022-10-12T03:08:00;113.93;;;69.18;;
39486;SDS011;25173;50.430;18.926;2022-10-12T03:11:01;112.65;;;67.97;;
39486;SDS011;25173;50.430;18.926;2022-10-12T03:14:03;113.15;;;67.22;;
39486;SDS011;25173;50.430;18.926;2022-10-12T03:17:04;98.82;;;61.08;;
39486;SDS011;25173;50.430;18.926;2022-10-12T03:20:04;99.38;;;58.30;;
39486;SDS011;25173;50.430;18.926;2022-10-12T03:23:05;99.07;;;59.60;;
39486;SDS011;25173;50.430;18.926;2022-10-12T03:26:06;103.68;;;60.47;;
39486;SDS011;25173;50.430;18.926;2022-10-12T03:29:07;114.28;;;65.55;;
39486;SDS011;25173;50.430;18.926;2022-10-12T03:32:08;105.50;;;66.18;;
39486;SDS011;25173;50.430;18.926;2022-10-12T03:35:09;108.93;;;68.60;;
39486;SDS011;25173;50.430;18.926;2022-10-12T03:38:10;103.05;;;60.50;;
39486;SDS011;25173;50.430;18.926;2022-10-12T03:41:11;102.25;;;62.22;;
39486;SDS011;25173;50.430;18.926;2022-10-12T03:44:12;108.40;;;64.85;;
39486;SDS011;25173;50.430;18.926;2022-10-12T03:47:12;110.25;;;63.00;;
39486;SDS011;25173;50.430;18.926;2022-10-12T03:50:13;103.80;;;63.25;;
39486;SDS011;25173;50.430;18.926;2022-10-12T03:53:16;102.90;;;62.60;;
39486;SDS011;25173;50.430;18.926;2022-10-12T03:56:18;109.18;;;63.20;;
39486;SDS011;25173;50.430;18.926;2022-10-12T03:59:18;102.30;;;62.08;;
39486;SDS011;25173;50.430;18.926;2022-10-12T04:02:19;112.60;;;64.38;;
39486;SDS011;25173;50.430;18.926;2022-10-12T04:05:20;105.78;;;65.45;;
39486;SDS011;25173;50.430;18.926;2022-10-12T04:08:20;106.70;;;65.75;;
39486;SDS011;25173;50.430;18.926;2022-10-12T04:11:22;113.32;;;67.72;;
39486;SDS011;25173;50.430;18.926;2022-10-12T04:14:23;114.32;;;65.40;;
39486;SDS011;25173;50.430;18.926;2022-10-12T04:17:24;118.03;;;68.85;;
39486;SDS011;25173;50.430;18.926;2022-10-12T04:20:24;122.80;;;72.05;;
39486;SDS011;25173;50.430;18.926;2022-10-12T04:23:25;121.75;;;69.53;;
39486;SDS011;25173;50.430;18.926;2022-10-12T04:26:26;106.43;;;63.33;;
39486;SDS011;25173;50.430;18.926;2022-10-12T04:29:26;110.97;;;69.40;;
39486;SDS011;25173;50.430;18.926;2022-10-12T04:32:27;121.45;;;73.85;;
39486;SDS011;25173;50.430;18.926;2022-10-12T04:35:28;112.20;;;68.43;;
39486;SDS011;25173;50.430;18.926;2022-10-12T04:38:28;114.45;;;71.10;;
39486;SDS011;25173;50.430;18.926;2022-10-12T04:41:29;123.80;;;75.53;;
39486;SDS011;25173;50.430;18.926;2022-10-12T04:44:29;152.18;;;89.47;;
39486;SDS011;25173;50.430;18.926;2022-10-12T04:47:32;160.18;;;92.38;;
39486;SDS011;25173;50.430;18.926;2022-10-12T04:50:34;125.68;;;74.93;;
39486;SDS011;25173;50.430;18.926;2022-10-12T04:53:35;139.63;;;80.22;;
39486;SDS011;25173;50.430;18.926;2022-10-12T04:56:35;130.15;;;72.72;;
39486;SDS011;25173;50.430;18.926;2022-10-12T04:59:37;111.00;;;68.25;;
39486;SDS011;25173;50.430;18.926;2022-10-12T05:02:37;116.07;;;69.70;;
39486;SDS011;25173;50.430;18.926;2022-10-12T05:05:38;116.78;;;64.25;;
39486;SDS011;25173;50.430;18.926;2022-10-12T05:08:38;120.43;;;68.68;;
39486;SDS011;25173;50.430;18.926;2022-10-12T05:11:39;114.97;;;69.45;;
39486;SDS011;25173;50.430;18.926;2022-10-12T05:14:40;118.10;;;69.78;;
39486;SDS011;25173;50.430;18.926;2022-10-12T05:17:40;117.38;;;68.78;;
39486;SDS011;25173;50.430;18.926;2022-10-12T05:20:41;111.90;;;67.55;;
39486;SDS011;25173;50.430;18.926;2022-10-12T05:23:43;117.80;;;67.47;;
39486;SDS011;25173;50.430;18.926;2022-10-12T05:26:43;115.00;;;69.35;;
39486;SDS011;25173;50.430;18.926;2022-10-12T05:29:44;107.82;;;65.47;;
39486;SDS011;25173;50.430;18.926;2022-10-12T05:32:44;134.23;;;73.97;;
39486;SDS011;25173;50.430;18.926;2022-10-12T05:35:46;143.52;;;82.18;;
39486;SDS011;25173;50.430;18.926;2022-10-12T05:38:47;149.65;;;84.03;;
39486;SDS011;25173;50.430;18.926;2022-10-12T05:41:48;146.30;;;82.97;;
39486;SDS011;25173;50.430;18.926;2022-10-12T05:44:50;131.93;;;79.25;;
39486;SDS011;25173;50.430;18.926;2022-10-12T05:47:51;127.22;;;76.60;;
39486;SDS011;25173;50.430;18.926;2022-10-12T05:50:52;130.85;;;78.07;;
39486;SDS011;25173;50.430;18.926;2022-10-12T05:53:53;132.68;;;77.85;;
39486;SDS011;25173;50.430;18.926;2022-10-12T05:56:54;128.75;;;76.05;;
39486;SDS011;25173;50.430;18.926;2022-10-12T05:59:55;118.72;;;74.22;;
39486;SDS011;25173;50.430;18.926;2022-10-12T06:02:55;118.43;;;70.78;;
39486;SDS011;25173;50.430;18.926;2022-10-12T06:05:56;114.63;;;71.18;;
39486;SDS011;25173;50.430;18.926;2022-10-12T06:08:56;112.28;;;71.10;;
39486;SDS011;25173;50.430;18.926;2022-10-12T06:11:57;114.57;;;67.68;;
39486;SDS011;25173;50.430;18.926;2022-10-12T06:14:58;117.60;;;64.75;;
39486;SDS011;25173;50.430;18.926;2022-10-12T06:17:58;104.88;;;65.57;;
39486;SDS011;25173;50.430;18.926;2022-10-12T06:20:59;106.20;;;61.00;;
39486;SDS011;25173;50.430;18.926;2022-10-12T06:24:00;97.97;;;59.55;;
39486;SDS011;25173;50.430;18.926;2022-10-12T06:27:01;98.88;;;56.08;;
39486;SDS011;25173;50.430;18.926;2022-10-12T06:30:01;93.35;;;54.50;;
39486;SDS011;25173;50.430;18.926;2022-10-12T06:33:03;91.97;;;55.28;;
39486;SDS011;25173;50.430;18.926;2022-10-12T06:36:04;92.68;;;56.45;;
39486;SDS011;25173;50.430;18.926;2022-10-12T06:39:04;98.15;;;59.70;;
39486;SDS011;25173;50.430;18.926;2022-10-12T06:42:05;95.28;;;54.60;;
39486;SDS011;25173;50.430;18.926;2022-10-12T06:45:08;91.07;;;54.58;;
39486;SDS011;25173;50.430;18.926;2022-10-12T06:48:09;88.60;;;53.22;;
39486;SDS011;25173;50.430;18.926;2022-10-12T06:51:10;80.80;;;48.58;;
39486;SDS011;25173;50.430;18.926;2022-10-12T06:54:10;79.13;;;49.42;;
39486;SDS011;25173;50.430;18.926;2022-10-12T06:57:11;71.43;;;43.25;;
39486;SDS011;25173;50.430;18.926;2022-10-12T07:00:12;72.60;;;43.30;;
39486;SDS011;25173;50.430;18.926;2022-10-12T07:03:13;80.10;;;46.33;;
39486;SDS011;25173;50.430;18.926;2022-10-12T07:06:14;71.90;;;44.15;;
39486;SDS011;25173;50.430;18.926;2022-10-12T07:09:15;65.35;;;38.33;;
39486;SDS011;25173;50.430;18.926;2022-10-12T07:12:16;71.28;;;40.15;;
39486;SDS011;25173;50.430;18.926;2022-10-12T07:15:17;73.93;;;38.88;;
39486;SDS011;25173;50.430;18.926;2022-10-12T07:18:18;69.82;;;42.50;;
39486;SDS011;25173;50.430;18.926;2022-10-12T07:21:18;75.80;;;43.63;;
39486;SDS011;25173;50.430;18.926;2022-10-12T07:24:20;75.90;;;43.53;;
39486;SDS011;25173;50.430;18.926;2022-10-12T07:27:21;67.22;;;40.53;;
39486;SDS011;25173;50.430;18.926;2022-10-12T07:30:21;58.88;;;35.03;;
39486;SDS011;25173;50.430;18.926;2022-10-12T07:33:22;57.60;;;35.03;;
39486;SDS011;25173;50.430;18.926;2022-10-12T07:36:23;57.33;;;33.92;;
39486;SDS011;25173;50.430;18.926;2022-10-12T07:39:23;44.28;;;25.45;;
39486;SDS011;25173;50.430;18.926;2022-10-12T07:42:24;39.90;;;25.13;;
39486;SDS011;25173;50.430;18.926;2022-10-12T07:45:25;42.85;;;24.63;;
39486;SDS011;25173;50.430;18.926;2022-10-12T07:48:29;40.25;;;23.20;;
39486;SDS011;25173;50.430;18.926;2022-10-12T07:51:30;39.88;;;25.67;;
39486;SDS011;25173;50.430;18.926;2022-10-12T07:54:30;48.38;;;26.38;;
39486;SDS011;25173;50.430;18.926;2022-10-12T07:57:32;45.88;;;26.33;;
39486;SDS011;25173;50.430;18.926;2022-10-12T08:00:34;44.10;;;25.17;;
39486;SDS011;25173;50.430;18.926;2022-10-12T08:03:34;44.63;;;25.27;;
39486;SDS011;25173;50.430;18.926;2022-10-12T08:06:35;43.25;;;24.48;;
39486;SDS011;25173;50.430;18.926;2022-10-12T08:09:36;44.55;;;23.63;;
39486;SDS011;25173;50.430;18.926;2022-10-12T08:12:37;42.03;;;21.63;;
39486;SDS011;25173;50.430;18.926;2022-10-12T08:15:37;35.05;;;19.67;;
39486;SDS011;25173;50.430;18.926;2022-10-12T08:18:38;31.08;;;16.52;;
39486;SDS011;25173;50.430;18.926;2022-10-12T08:21:39;32.88;;;18.67;;
39486;SDS011;25173;50.430;18.926;2022-10-12T08:24:41;27.02;;;14.73;;
39486;SDS011;25173;50.430;18.926;2022-10-12T08:27:42;33.20;;;16.42;;
39486;SDS011;25173;50.430;18.926;2022-10-12T08:30:43;29.15;;;15.00;;
39486;SDS011;25173;50.430;18.926;2022-10-12T08:33:44;28.20;;;14.65;;
39486;SDS011;25173;50.430;18.926;2022-10-12T08:36:44;25.23;;;14.05;;
39486;SDS011;25173;50.430;18.926;2022-10-12T08:39:45;33.40;;;13.18;;
39486;SDS011;25173;50.430;18.926;2022-10-12T08:42:49;23.40;;;11.98;;
39486;SDS011;25173;50.430;18.926;2022-10-12T08:45:56;21.40;;;10.73;;
39486;SDS011;25173;50.430;18.926;2022-10-12T08:55:32;19.88;;;9.80;;
39486;SDS011;25173;50.430;18.926;2022-10-12T08:58:35;17.95;;;9.50;;
39486;SDS011;25173;50.430;18.926;2022-10-12T09:05:09;16.85;;;7.57;;
39486;SDS011;25173;50.430;18.926;2022-10-12T09:11:29;14.13;;;5.97;;
39486;SDS011;25173;50.430;18.926;2022-10-12T09:14:34;14.60;;;7.65;;
39486;SDS011;25173;50.430;18.926;2022-10-12T09:17:38;17.30;;;6.13;;
39486;SDS011;25173;50.430;18.926;2022-10-12T09:20:45;12.73;;;4.97;;
39486;SDS011;25173;50.430;18.926;2022-10-12T09:23:47;12.05;;;4.88;;
39486;SDS011;25173;50.430;18.926;2022-10-12T09:26:49;14.05;;;4.63;;
39486;SDS011;25173;50.430;18.926;2022-10-12T09:29:54;11.20;;;3.80;;
39486;SDS011;25173;50.430;18.926;2022-10-12T09:33:13;11.10;;;3.53;;
39486;SDS011;25173;50.430;18.926;2022-10-12T09:36:21;7.38;;;2.88;;
39486;SDS011;25173;50.430;18.926;2022-10-12T09:39:29;8.85;;;2.33;;
39486;SDS011;25173;50.430;18.926;2022-10-12T09:42:32;6.72;;;2.92;;
39486;SDS011;25173;50.430;18.926;2022-10-12T09:45:33;11.82;;;2.53;;
39486;SDS011;25173;50.430;18.926;2022-10-12T09:48:34;7.40;;;1.98;;
39486;SDS011;25173;50.430;18.926;2022-10-12T09:51:35;8.98;;;2.97;;
39486;SDS011;25173;50.430;18.926;2022-10-12T09:54:40;6.90;;;3.08;;
39486;SDS011;25173;50.430;18.926;2022-10-12T09:57:51;12.20;;;4.30;;
39486;SDS011;25173;50.430;18.926;2022-10-12T10:01:14;11.98;;;4.97;;
39486;SDS011;25173;50.430;18.926;2022-10-12T10:04:23;11.95;;;4.28;;
39486;SDS011;25173;50.430;18.926;2022-10-12T10:07:29;12.60;;;4.18;;
39486;SDS011;25173;50.430;18.926;2022-10-12T10:10:32;10.57;;;3.55;;
39486;SDS011;25173;50.430;18.926;2022-10-12T10:13:33;16.13;;;4.20;;
39486;SDS011;25173;50.430;18.926;2022-10-12T10:16:36;11.43;;;3.72;;
39486;SDS011;25173;50.430;18.926;2022-10-12T10:19:48;10.10;;;3.97;;
39486;SDS011;25173;50.430;18.926;2022-10-12T10:22:50;9.82;;;4.00;;
39486;SDS011;25173;50.430;18.926;2022-10-12T10:26:01;12.40;;;4.35;;
39486;SDS011;25173;50.430;18.926;2022-10-12T10:29:14;11.23;;;4.07;;
39486;SDS011;25173;50.430;18.926;2022-10-12T10:32:23;10.52;;;4.80;;
39486;SDS011;25173;50.430;18.926;2022-10-12T10:35:28;10.93;;;3.88;;
39486;SDS011;25173;50.430;18.926;2022-10-12T10:38:44;8.43;;;3.85;;
39486;SDS011;25173;50.430;18.926;2022-10-12T10:41:47;10.52;;;3.65;;
39486;SDS011;25173;50.430;18.926;2022-10-12T10:44:49;14.73;;;4.20;;
39486;SDS011;25173;50.430;18.926;2022-10-12T10:47:52;14.30;;;3.42;;
39486;SDS011;25173;50.430;18.926;2022-10-12T10:51:01;9.77;;;3.80;;
39486;SDS011;25173;50.430;18.926;2022-10-12T10:54:14;6.93;;;3.10;;
39486;SDS011;25173;50.430;18.926;2022-10-12T10:57:39;6.10;;;3.58;;
39486;SDS011;25173;50.430;18.926;2022-10-12T11:04:26;10.07;;;3.95;;
39486;SDS011;25173;50.430;18.926;2022-10-12T11:07:36;7.43;;;3.35;;
39486;SDS011;25173;50.430;18.926;2022-10-12T11:10:53;17.05;;;3.95;;
39486;SDS011;25173;50.430;18.926;2022-10-12T11:13:59;6.70;;;2.80;;
39486;SDS011;25173;50.430;18.926;2022-10-12T11:17:09;8.95;;;2.90;;
39486;SDS011;25173;50.430;18.926;2022-10-12T11:23:56;13.05;;;2.97;;
39486;SDS011;25173;50.430;18.926;2022-10-12T11:30:25;9.48;;;3.70;;
39486;SDS011;25173;50.430;18.926;2022-10-12T11:33:34;8.30;;;3.00;;
39486;SDS011;25173;50.430;18.926;2022-10-12T11:36:38;10.05;;;3.28;;
39486;SDS011;25173;50.430;18.926;2022-10-12T11:39:43;6.27;;;2.80;;
39486;SDS011;25173;50.430;18.926;2022-10-12T11:42:49;13.18;;;3.20;;
39486;SDS011;25173;50.430;18.926;2022-10-12T11:45:56;11.10;;;3.85;;
39486;SDS011;25173;50.430;18.926;2022-10-12T11:49:07;8.50;;;2.97;;
39486;SDS011;25173;50.430;18.926;2022-10-12T11:52:18;8.05;;;3.03;;
39486;SDS011;25173;50.430;18.926;2022-10-12T11:58:36;7.15;;;2.80;;
39486;SDS011;25173;50.430;18.926;2022-10-12T12:05:18;9.07;;;3.47;;
39486;SDS011;25173;50.430;18.926;2022-10-12T12:11:42;10.95;;;3.35;;
39486;SDS011;25173;50.430;18.926;2022-10-12T12:14:44;7.25;;;2.80;;
39486;SDS011;25173;50.430;18.926;2022-10-12T12:18:02;10.82;;;2.70;;
39486;SDS011;25173;50.430;18.926;2022-10-12T12:21:23;8.10;;;2.90;;
39486;SDS011;25173;50.430;18.926;2022-10-12T12:24:24;13.02;;;3.05;;
39486;SDS011;25173;50.430;18.926;2022-10-12T12:30:38;8.25;;;2.80;;
39486;SDS011;25173;50.430;18.926;2022-10-12T12:33:39;9.63;;;3.28;;
39486;SDS011;25173;50.430;18.926;2022-10-12T12:36:43;7.95;;;3.15;;
39486;SDS011;25173;50.430;18.926;2022-10-12T12:39:50;7.93;;;3.53;;
39486;SDS011;25173;50.430;18.926;2022-10-12T12:49:53;10.40;;;2.80;;
39486;SDS011;25173;50.430;18.926;2022-10-12T12:53:00;5.45;;;2.70;;
39486;SDS011;25173;50.430;18.926;2022-10-12T12:56:19;9.77;;;2.90;;
39486;SDS011;25173;50.430;18.926;2022-10-12T13:10:25;8.57;;;2.53;;
39486;SDS011;25173;50.430;18.926;2022-10-12T13:14:08;7.85;;;2.47;;
39486;SDS011;25173;50.430;18.926;2022-10-12T13:17:35;12.38;;;4.45;;
39486;SDS011;25173;50.430;18.926;2022-10-12T13:20:48;7.13;;;2.75;;
39486;SDS011;25173;50.430;18.926;2022-10-12T13:23:50;7.53;;;2.65;;
39486;SDS011;25173;50.430;18.926;2022-10-12T13:30:42;8.20;;;2.78;;
39486;SDS011;25173;50.430;18.926;2022-10-12T13:37:10;5.70;;;2.60;;
39486;SDS011;25173;50.430;18.926;2022-10-12T13:40:28;10.85;;;4.55;;
39486;SDS011;25173;50.430;18.926;2022-10-12T13:46:41;12.00;;;3.75;;
39486;SDS011;25173;50.430;18.926;2022-10-12T13:49:46;7.05;;;3.83;;
39486;SDS011;25173;50.430;18.926;2022-10-12T13:52:51;7.25;;;3.15;;
39486;SDS011;25173;50.430;18.926;2022-10-12T13:55:58;6.90;;;2.83;;
39486;SDS011;25173;50.430;18.926;2022-10-12T13:59:03;8.15;;;3.75;;
39486;SDS011;25173;50.430;18.926;2022-10-12T14:02:14;10.70;;;3.88;;
39486;SDS011;25173;50.430;18.926;2022-10-12T14:05:17;11.30;;;3.78;;
39486;SDS011;25173;50.430;18.926;2022-10-12T14:08:22;15.00;;;4.63;;
39486;SDS011;25173;50.430;18.926;2022-10-12T14:11:25;8.10;;;3.10;;
39486;SDS011;25173;50.430;18.926;2022-10-12T14:14:31;8.02;;;3.20;;
39486;SDS011;25173;50.430;18.926;2022-10-12T14:17:40;9.30;;;3.55;;
39486;SDS011;25173;50.430;18.926;2022-10-12T14:20:43;9.82;;;2.80;;
39486;SDS011;25173;50.430;18.926;2022-10-12T14:23:45;5.45;;;2.28;;
39486;SDS011;25173;50.430;18.926;2022-10-12T14:26:52;7.43;;;2.53;;
39486;SDS011;25173;50.430;18.926;2022-10-12T14:30:15;5.28;;;2.40;;
39486;SDS011;25173;50.430;18.926;2022-10-12T14:33:21;9.57;;;2.83;;
39486;SDS011;25173;50.430;18.926;2022-10-12T14:36:24;16.25;;;3.72;;
39486;SDS011;25173;50.430;18.926;2022-10-12T14:39:26;5.20;;;2.33;;
39486;SDS011;25173;50.430;18.926;2022-10-12T14:42:35;8.45;;;3.20;;
39486;SDS011;25173;50.430;18.926;2022-10-12T14:45:36;6.07;;;2.40;;
39486;SDS011;25173;50.430;18.926;2022-10-12T14:48:36;18.20;;;3.42;;
39486;SDS011;25173;50.430;18.926;2022-10-12T14:51:37;7.03;;;2.53;;
39486;SDS011;25173;50.430;18.926;2022-10-12T14:54:38;8.32;;;2.75;;
39486;SDS011;25173;50.430;18.926;2022-10-12T14:57:38;8.43;;;2.40;;
39486;SDS011;25173;50.430;18.926;2022-10-12T15:00:39;158.02;;;78.70;;
39486;SDS011;25173;50.430;18.926;2022-10-12T15:03:39;116.38;;;68.47;;
39486;SDS011;25173;50.430;18.926;2022-10-12T15:06:40;58.75;;;36.42;;
39486;SDS011;25173;50.430;18.926;2022-10-12T15:09:41;565.25;;;451.52;;
39486;SDS011;25173;50.430;18.926;2022-10-12T15:12:41;390.67;;;294.15;;
39486;SDS011;25173;50.430;18.926;2022-10-12T15:15:44;101.20;;;63.38;;
39486;SDS011;25173;50.430;18.926;2022-10-12T15:18:45;32.47;;;21.13;;
39486;SDS011;25173;50.430;18.926;2022-10-12T15:21:46;29.85;;;15.60;;
39486;SDS011;25173;50.430;18.926;2022-10-12T15:24:47;27.77;;;14.68;;
39486;SDS011;25173;50.430;18.926;2022-10-12T15:27:48;42.05;;;31.55;;
39486;SDS011;25173;50.430;18.926;2022-10-12T15:30:49;23.92;;;11.90;;
39486;SDS011;25173;50.430;18.926;2022-10-12T15:33:50;18.33;;;10.25;;
39486;SDS011;25173;50.430;18.926;2022-10-12T15:36:50;17.08;;;6.93;;
39486;SDS011;25173;50.430;18.926;2022-10-12T15:39:51;16.45;;;6.78;;
39486;SDS011;25173;50.430;18.926;2022-10-12T15:42:52;15.88;;;6.70;;
39486;SDS011;25173;50.430;18.926;2022-10-12T15:45:52;22.25;;;8.45;;
39486;SDS011;25173;50.430;18.926;2022-10-12T15:48:55;16.85;;;7.68;;
39486;SDS011;25173;50.430;18.926;2022-10-12T15:51:57;23.38;;;8.65;;
39486;SDS011;25173;50.430;18.926;2022-10-12T15:54:58;23.75;;;8.43;;
39486;SDS011;25173;50.430;18.926;2022-10-12T15:57:58;23.30;;;9.48;;
39486;SDS011;25173;50.430;18.926;2022-10-12T16:00:59;24.85;;;8.75;;
39486;SDS011;25173;50.430;18.926;2022-10-12T16:04:00;23.55;;;8.90;;
39486;SDS011;25173;50.430;18.926;2022-10-12T16:07:04;17.58;;;8.93;;
39486;SDS011;25173;50.430;18.926;2022-10-12T16:10:04;23.23;;;11.95;;
39486;SDS011;25173;50.430;18.926;2022-10-12T16:13:06;24.08;;;11.18;;
39486;SDS011;25173;50.430;18.926;2022-10-12T16:16:08;41.92;;;21.27;;
39486;SDS011;25173;50.430;18.926;2022-10-12T16:19:08;40.47;;;19.00;;
39486;SDS011;25173;50.430;18.926;2022-10-12T16:22:09;47.97;;;25.33;;
39486;SDS011;25173;50.430;18.926;2022-10-12T16:25:11;52.65;;;24.23;;
39486;SDS011;25173;50.430;18.926;2022-10-12T16:28:13;62.13;;;30.92;;
39486;SDS011;25173;50.430;18.926;2022-10-12T16:31:14;61.17;;;37.47;;
39486;SDS011;25173;50.430;18.926;2022-10-12T16:34:16;61.28;;;32.70;;
39486;SDS011;25173;50.430;18.926;2022-10-12T16:37:17;59.92;;;31.77;;
39486;SDS011;25173;50.430;18.926;2022-10-12T16:40:19;122.55;;;51.35;;
39486;SDS011;25173;50.430;18.926;2022-10-12T16:43:19;110.07;;;54.38;;
39486;SDS011;25173;50.430;18.926;2022-10-12T16:46:20;108.75;;;51.17;;
39486;SDS011;25173;50.430;18.926;2022-10-12T16:49:20;110.00;;;55.40;;
39486;SDS011;25173;50.430;18.926;2022-10-12T16:52:23;159.98;;;76.75;;
39486;SDS011;25173;50.430;18.926;2022-10-12T16:55:24;186.85;;;90.20;;
39486;SDS011;25173;50.430;18.926;2022-10-12T16:58:25;351.42;;;174.20;;
39486;SDS011;25173;50.430;18.926;2022-10-12T17:01:26;217.35;;;106.72;;
39486;SDS011;25173;50.430;18.926;2022-10-12T17:04:26;137.52;;;66.75;;
39486;SDS011;25173;50.430;18.926;2022-10-12T17:07:27;274.20;;;144.88;;
39486;SDS011;25173;50.430;18.926;2022-10-12T17:10:27;454.38;;;268.83;;
39486;SDS011;25173;50.430;18.926;2022-10-12T17:13:28;362.25;;;198.93;;
39486;SDS011;25173;50.430;18.926;2022-10-12T17:16:31;293.20;;;148.52;;
39486;SDS011;25173;50.430;18.926;2022-10-12T17:19:47;176.95;;;96.85;;
39486;SDS011;25173;50.430;18.926;2022-10-12T17:22:48;214.45;;;109.95;;
39486;SDS011;25173;50.430;18.926;2022-10-12T17:25:49;198.07;;;104.88;;
39486;SDS011;25173;50.430;18.926;2022-10-12T17:28:49;206.13;;;103.82;;
39486;SDS011;25173;50.430;18.926;2022-10-12T17:31:51;217.57;;;119.82;;
39486;SDS011;25173;50.430;18.926;2022-10-12T17:34:53;265.65;;;134.32;;
39486;SDS011;25173;50.430;18.926;2022-10-12T17:37:53;431.48;;;169.95;;
39486;SDS011;25173;50.430;18.926;2022-10-12T17:40:54;136.43;;;72.47;;
39486;SDS011;25173;50.430;18.926;2022-10-12T17:43:55;138.90;;;76.90;;
39486;SDS011;25173;50.430;18.926;2022-10-12T17:46:56;159.02;;;84.10;;
39486;SDS011;25173;50.430;18.926;2022-10-12T17:49:57;132.85;;;75.82;;
39486;SDS011;25173;50.430;18.926;2022-10-12T17:52:58;145.30;;;79.88;;
39486;SDS011;25173;50.430;18.926;2022-10-12T17:55:59;140.75;;;77.00;;
39486;SDS011;25173;50.430;18.926;2022-10-12T17:59:01;142.95;;;86.00;;
39486;SDS011;25173;50.430;18.926;2022-10-12T18:02:03;141.85;;;89.80;;
39486;SDS011;25173;50.430;18.926;2022-10-12T18:05:04;136.35;;;83.43;;
39486;SDS011;25173;50.430;18.926;2022-10-12T18:08:05;158.70;;;88.80;;
39486;SDS011;25173;50.430;18.926;2022-10-12T18:11:05;199.77;;;113.10;;
39486;SDS011;25173;50.430;18.926;2022-10-12T18:14:08;138.10;;;83.65;;
39486;SDS011;25173;50.430;18.926;2022-10-12T18:17:10;165.65;;;89.75;;
39486;SDS011;25173;50.430;18.926;2022-10-12T18:20:10;212.95;;;108.65;;
39486;SDS011;25173;50.430;18.926;2022-10-12T18:23:11;382.65;;;192.80;;
39486;SDS011;25173;50.430;18.926;2022-10-12T18:26:16;341.67;;;163.85;;
39486;SDS011;25173;50.430;18.926;2022-10-12T18:29:21;305.25;;;151.57;;
39486;SDS011;25173;50.430;18.926;2022-10-12T18:32:22;294.80;;;152.23;;
39486;SDS011;25173;50.430;18.926;2022-10-12T18:35:23;359.45;;;194.68;;
39486;SDS011;25173;50.430;18.926;2022-10-12T18:38:23;344.65;;;194.38;;
39486;SDS011;25173;50.430;18.926;2022-10-12T18:41:24;390.52;;;205.88;;
39486;SDS011;25173;50.430;18.926;2022-10-12T18:44:27;367.52;;;189.35;;
39486;SDS011;25173;50.430;18.926;2022-10-12T18:47:28;209.23;;;113.32;;
39486;SDS011;25173;50.430;18.926;2022-10-12T18:50:28;254.82;;;143.93;;
39486;SDS011;25173;50.430;18.926;2022-10-12T18:53:29;269.98;;;148.35;;
39486;SDS011;25173;50.430;18.926;2022-10-12T18:56:31;319.52;;;166.05;;
39486;SDS011;25173;50.430;18.926;2022-10-12T18:59:32;273.83;;;147.88;;
39486;SDS011;25173;50.430;18.926;2022-10-12T19:02:33;299.80;;;155.25;;
39486;SDS011;25173;50.430;18.926;2022-10-12T19:05:35;281.67;;;147.60;;
39486;SDS011;25173;50.430;18.926;2022-10-12T19:08:35;255.30;;;135.93;;
39486;SDS011;25173;50.430;18.926;2022-10-12T19:11:36;232.43;;;124.35;;
39486;SDS011;25173;50.430;18.926;2022-10-12T19:14:37;340.20;;;165.15;;